Terminal Aerodrome Forecast
Issued by NWS

Home | Current Version | Previous Version | Text Only | Print | Product List | Glossary On
Versions: 1 2 3 4 5 6 7 8 9 10 11 12 13 14 15 16 17 18 19 20 21 22 23 24 25
000
FTUS41 KBOX 131734
TAFFMH
TAF
KFMH 131734Z 1318/1418 21018G26KT P6SM FEW070
     FM140000 21014G24KT P6SM BKN070
     FM140600 22014G22KT P6SM BKN030
     FM140900 22011G20KT 4SM BR BKN008
     FM141500 22011KT P6SM BKN015=

USA.gov is the U.S. government's official web portal to all federal, state and local government web resources and services.